createdAt,value
2017-11-19T00:01:32.898Z,79.70
2017-11-19T00:04:01.282Z,79.70
2017-11-19T00:06:29.645Z,79.60
2017-11-19T00:08:57.317Z,79.60
2017-11-19T00:11:25.803Z,80.00
2017-11-19T00:13:54.195Z,79.30
2017-11-19T00:16:22.671Z,79.10
2017-11-19T00:18:51.050Z,79.00
2017-11-19T00:21:19.424Z,78.90
2017-11-19T00:23:47.901Z,78.90
2017-11-19T00:26:16.281Z,79.00
2017-11-19T00:28:43.870Z,78.90
2017-11-19T00:31:11.512Z,79.30
2017-11-19T00:33:39.874Z,78.80
2017-11-19T00:36:07.550Z,78.80
2017-11-19T00:38:35.931Z,78.30
2017-11-19T00:41:04.320Z,78.30
2017-11-19T00:43:32.686Z,78.60
2017-11-19T00:46:00.308Z,78.50
2017-11-19T00:48:27.908Z,78.20
2017-11-19T00:50:55.589Z,78.50
2017-11-19T00:53:23.945Z,78.30
2017-11-19T00:55:51.559Z,78.30
2017-11-19T00:58:19.178Z,78.30
2017-11-19T01:00:46.809Z,78.40
2017-11-19T01:03:14.406Z,78.30
2017-11-19T01:05:42.786Z,78.50
2017-11-19T01:08:11.166Z,78.40
2017-11-19T01:10:39.543Z,78.50
2017-11-19T01:13:07.210Z,78.40
2017-11-19T01:15:35.595Z,78.30
2017-11-19T01:18:04.069Z,78.30
2017-11-19T01:20:31.730Z,78.30
2017-11-19T01:22:59.348Z,78.50
2017-11-19T01:25:26.939Z,78.70
2017-11-19T01:27:54.613Z,78.70
2017-11-19T01:30:22.206Z,78.90
2017-11-19T01:32:49.818Z,79.00
2017-11-19T01:35:17.422Z,79.10
2017-11-19T01:37:45.882Z,78.90
2017-11-19T01:40:13.554Z,78.80
2017-11-19T01:42:41.927Z,79.00
2017-11-19T01:45:09.537Z,78.90
2017-11-19T01:47:37.154Z,79.00
2017-11-19T01:50:05.633Z,79.10
2017-11-19T01:52:33.298Z,79.00
2017-11-19T01:55:01.792Z,79.10
2017-11-19T01:57:30.163Z,79.10
2017-11-19T01:59:58.550Z,79.70
2017-11-19T02:02:31.890Z,79.30
2017-11-19T02:04:59.597Z,79.30
2017-11-19T02:07:27.962Z,79.70
2017-11-19T02:09:55.579Z,79.60
2017-11-19T02:12:23.183Z,79.80
2017-11-19T02:14:50.861Z,79.90
2017-11-19T02:17:18.465Z,80.10
2017-11-19T02:19:46.058Z,80.10
2017-11-19T02:22:13.753Z,80.30
2017-11-19T02:24:42.122Z,80.70
2017-11-19T02:27:09.747Z,80.30
2017-11-19T02:29:37.338Z,80.20
2017-11-19T02:32:04.954Z,80.30
2017-11-19T02:34:32.600Z,80.50
2017-11-19T02:37:00.237Z,80.80
2017-11-19T02:39:27.915Z,80.90
2017-11-19T02:41:56.310Z,80.60
2017-11-19T02:44:24.671Z,80.50
2017-11-19T02:46:53.068Z,80.70
2017-11-19T02:49:21.543Z,80.50
2017-11-19T02:51:50.010Z,80.70
2017-11-19T02:54:17.610Z,80.70
2017-11-19T02:56:45.200Z,81.20
2017-11-19T02:59:12.898Z,80.70
2017-11-19T03:01:41.255Z,80.90
2017-11-19T03:04:08.879Z,80.80
2017-11-19T03:06:36.501Z,80.90
2017-11-19T03:09:04.179Z,80.90
2017-11-19T03:11:32.539Z,80.90
2017-11-19T03:14:00.201Z,80.90
2017-11-19T03:16:27.878Z,81.00
2017-11-19T03:18:56.366Z,80.90
2017-11-19T03:21:24.838Z,80.80
2017-11-19T03:23:53.317Z,81.70
2017-11-19T03:26:20.983Z,80.80
2017-11-19T03:28:48.647Z,81.40
2017-11-19T03:31:17.031Z,81.50
2017-11-19T03:33:45.410Z,80.50
2017-11-19T03:36:13.799Z,81.10
2017-11-19T03:38:42.167Z,80.40
2017-11-19T03:41:10.559Z,80.40
2017-11-19T03:43:38.921Z,80.50
2017-11-19T03:46:07.325Z,80.40
2017-11-19T03:48:35.692Z,80.20
2017-11-19T03:51:04.174Z,80.20
2017-11-19T03:53:32.533Z,80.10
2017-11-19T03:56:00.214Z,80.10
2017-11-19T03:58:28.603Z,80.70
2017-11-19T04:00:57.080Z,79.90
2017-11-19T04:03:25.446Z,79.90
2017-11-19T04:05:53.123Z,79.80
2017-11-19T04:08:21.490Z,79.70
2017-11-19T04:10:49.123Z,79.70
2017-11-19T04:13:16.705Z,79.70
2017-11-19T04:15:44.294Z,79.60
2017-11-19T04:18:12.682Z,79.90
2017-11-19T04:20:41.142Z,79.70
2017-11-19T04:23:09.621Z,80.00
2017-11-19T04:25:37.214Z,79.70
2017-11-19T04:28:04.851Z,79.80
2017-11-19T04:30:33.240Z,79.60
2017-11-19T04:33:01.710Z,79.50
2017-11-19T04:35:29.302Z,79.60
2017-11-19T04:37:56.944Z,79.60
2017-11-19T04:40:25.423Z,79.40
2017-11-19T04:42:53.897Z,79.50
2017-11-19T04:45:21.566Z,79.30
2017-11-19T04:47:49.963Z,80.70
2017-11-19T04:50:17.570Z,79.70
2017-11-19T04:52:45.274Z,79.60
2017-11-19T04:55:13.634Z,79.60
2017-11-19T04:57:41.318Z,79.50
2017-11-19T05:00:09.714Z,79.50
2017-11-19T05:02:38.173Z,79.50
2017-11-19T05:05:05.843Z,79.50
2017-11-19T05:07:34.202Z,79.50
2017-11-19T05:10:01.878Z,79.40
2017-11-19T05:12:30.267Z,79.40
2017-11-19T05:14:58.650Z,79.40
2017-11-19T05:17:27.128Z,79.40
2017-11-19T05:19:55.601Z,80.20
2017-11-19T05:22:23.265Z,79.40
2017-11-19T05:24:50.886Z,79.40
2017-11-19T05:27:18.488Z,79.40
2017-11-19T05:29:46.171Z,79.30
2017-11-19T05:32:14.535Z,79.20
2017-11-19T05:34:42.199Z,79.20
2017-11-19T05:37:10.587Z,79.30
2017-11-19T05:39:38.952Z,79.20
2017-11-19T05:42:06.580Z,79.30
2017-11-19T05:44:34.165Z,79.30
2017-11-19T05:47:01.779Z,79.10
2017-11-19T05:49:29.421Z,78.80
2017-11-19T05:51:57.079Z,79.00
2017-11-19T05:54:25.549Z,78.80
2017-11-19T05:56:53.234Z,78.60
2017-11-19T05:59:20.838Z,78.50
2017-11-19T06:01:48.450Z,78.70
2017-11-19T06:04:16.798Z,78.60
2017-11-19T06:06:44.487Z,78.50
2017-11-19T06:09:12.935Z,78.50
2017-11-19T06:11:40.561Z,78.50
2017-11-19T06:14:08.297Z,78.40
2017-11-19T06:16:36.659Z,78.70
2017-11-19T06:19:04.274Z,78.60
2017-11-19T06:21:31.862Z,78.50
2017-11-19T06:23:59.538Z,78.60
2017-11-19T06:26:27.130Z,78.60
2017-11-19T06:28:55.518Z,78.40
2017-11-19T06:31:23.873Z,78.40
2017-11-19T06:33:51.494Z,78.40
2017-11-19T06:36:19.097Z,78.50
2017-11-19T06:38:46.727Z,78.60
2017-11-19T06:41:14.328Z,78.70
2017-11-19T06:43:42.814Z,78.80
2017-11-19T06:46:11.183Z,79.00
2017-11-19T06:48:38.851Z,78.90
2017-11-19T06:51:07.232Z,79.20
2017-11-19T06:53:35.628Z,79.20
2017-11-19T06:56:04.099Z,79.50
2017-11-19T06:58:32.578Z,79.50
2017-11-19T07:01:00.204Z,79.50
2017-11-19T07:03:27.806Z,79.40
2017-11-19T07:05:56.195Z,79.80
2017-11-19T07:08:24.657Z,79.80
2017-11-19T07:10:52.322Z,79.80
2017-11-19T07:13:19.919Z,79.80
2017-11-19T07:15:47.548Z,80.00
2017-11-19T07:18:15.930Z,79.60
2017-11-19T07:20:44.331Z,79.50
2017-11-19T07:23:12.707Z,79.50
2017-11-19T07:25:41.106Z,79.40
2017-11-19T07:28:08.711Z,79.40
2017-11-19T07:30:36.353Z,79.40
2017-11-19T07:33:04.062Z,79.50
2017-11-19T07:35:32.431Z,79.40
2017-11-19T07:38:00.927Z,79.30
2017-11-19T07:40:29.290Z,79.50
2017-11-19T07:42:56.906Z,79.40
2017-11-19T07:45:24.515Z,79.40
2017-11-19T07:47:52.190Z,79.20
2017-11-19T07:50:20.554Z,79.20
2017-11-19T07:52:48.266Z,79.10
2017-11-19T07:55:16.614Z,79.10
2017-11-19T07:57:45.003Z,79.00
2017-11-19T08:00:13.358Z,79.10
2017-11-19T08:02:40.965Z,78.90
2017-11-19T08:05:08.565Z,79.00
2017-11-19T08:07:36.259Z,79.20
2017-11-19T08:10:04.640Z,79.70
2017-11-19T08:12:33.003Z,79.60
2017-11-19T08:15:00.633Z,79.60
2017-11-19T08:17:28.249Z,79.30
2017-11-19T08:19:56.635Z,79.30
2017-11-19T08:22:24.994Z,79.30
2017-11-19T08:24:53.387Z,79.10
2017-11-19T08:27:21.745Z,79.00
2017-11-19T08:29:49.363Z,78.90
2017-11-19T08:32:16.967Z,78.90
2017-11-19T08:34:44.586Z,79.10
2017-11-19T08:37:12.219Z,79.10
2017-11-19T08:39:40.612Z,79.00
2017-11-19T08:42:09.211Z,78.70
2017-11-19T08:44:36.832Z,78.70
2017-11-19T08:47:05.943Z,78.30
2017-11-19T08:49:34.321Z,78.40
2017-11-19T08:52:02.790Z,78.30
2017-11-19T08:54:30.459Z,78.30
2017-11-19T08:56:58.847Z,78.10
2017-11-19T08:59:27.222Z,78.30
2017-11-19T09:01:55.586Z,78.00
2017-11-19T09:04:23.262Z,78.00
2017-11-19T09:06:51.628Z,77.90
2017-11-19T09:09:19.213Z,78.00
2017-11-19T09:11:47.596Z,77.90
2017-11-19T09:14:15.963Z,77.40
2017-11-19T09:16:44.347Z,76.90
2017-11-19T09:19:11.944Z,77.50
2017-11-19T09:21:39.562Z,77.00
2017-11-19T09:24:07.163Z,77.50
2017-11-19T09:26:34.782Z,77.80
2017-11-19T09:29:02.387Z,77.00
2017-11-19T09:31:30.003Z,77.00
2017-11-19T09:33:57.673Z,77.10
2017-11-19T09:36:25.402Z,77.20
2017-11-19T09:38:53.111Z,77.40
2017-11-19T09:41:21.475Z,77.70
2017-11-19T09:43:49.086Z,77.70
2017-11-19T09:46:16.709Z,77.70
2017-11-19T09:48:45.151Z,77.40
2017-11-19T09:51:12.767Z,77.30
2017-11-19T09:53:41.236Z,77.20
2017-11-19T09:56:08.832Z,77.10
2017-11-19T09:58:36.455Z,77.20
2017-11-19T10:01:05.558Z,76.90
2017-11-19T10:03:34.042Z,75.80
2017-11-19T10:06:01.698Z,76.40
2017-11-19T10:08:30.181Z,76.20
2017-11-19T10:10:57.851Z,76.20
2017-11-19T10:13:26.235Z,75.90
2017-11-19T10:15:54.606Z,75.50
2017-11-19T10:18:22.273Z,75.50
2017-11-19T10:20:50.654Z,75.30
2017-11-19T10:23:19.027Z,75.30
2017-11-19T10:25:47.450Z,75.70
2017-11-19T10:28:15.077Z,75.70
2017-11-19T10:30:42.692Z,75.10
2017-11-19T10:33:10.303Z,75.10
2017-11-19T10:35:38.687Z,74.70
2017-11-19T10:38:07.163Z,74.50
2017-11-19T10:40:35.550Z,74.50
2017-11-19T10:43:03.927Z,74.80
2017-11-19T10:45:32.401Z,74.40
2017-11-19T10:48:00.062Z,74.40
2017-11-19T10:50:29.183Z,73.50
2017-11-19T10:52:57.536Z,73.30
2017-11-19T10:55:26.664Z,73.80
2017-11-19T10:57:55.026Z,73.90
2017-11-19T11:00:23.389Z,73.30
2017-11-19T11:02:51.777Z,74.10
2017-11-19T11:05:20.879Z,73.30
2017-11-19T11:07:49.265Z,73.20
2017-11-19T11:10:17.639Z,73.00
2017-11-19T11:12:46.115Z,72.80
2017-11-19T11:15:13.707Z,72.60
2017-11-19T11:17:41.338Z,72.80
2017-11-19T11:20:08.935Z,73.10
2017-11-19T11:22:36.571Z,73.40
2017-11-19T11:25:04.946Z,72.20
2017-11-19T11:27:32.602Z,72.20
2017-11-19T11:30:01.704Z,74.60
2017-11-19T11:32:29.329Z,74.50
2017-11-19T11:34:57.751Z,75.30
2017-11-19T11:37:26.157Z,75.70
2017-11-19T11:39:53.743Z,75.70
2017-11-19T11:42:21.364Z,76.30
2017-11-19T11:44:49.747Z,77.30
2017-11-19T11:47:18.219Z,77.80
2017-11-19T11:49:46.603Z,77.60
2017-11-19T11:52:14.965Z,77.80
2017-11-19T11:54:43.350Z,77.40
2017-11-19T11:57:12.569Z,77.10
2017-11-19T11:59:40.950Z,77.20
2017-11-19T12:02:09.302Z,77.10
2017-11-19T12:04:36.910Z,77.10
2017-11-19T12:07:04.507Z,77.00
2017-11-19T12:09:32.140Z,77.30
2017-11-19T12:11:59.757Z,77.50
2017-11-19T12:14:28.874Z,74.40
2017-11-19T12:16:57.226Z,72.90
2017-11-19T12:19:25.601Z,72.60
2017-11-19T12:21:53.181Z,72.60
2017-11-19T12:24:20.843Z,70.40
2017-11-19T12:26:48.511Z,70.80
2017-11-19T12:29:16.922Z,67.40
2017-11-19T12:31:44.555Z,67.30
2017-11-19T12:34:12.915Z,66.70
2017-11-19T12:36:41.411Z,65.80
2017-11-19T12:39:09.006Z,65.80
2017-11-19T12:41:36.630Z,65.40
2017-11-19T12:44:04.310Z,64.50
2017-11-19T12:46:32.695Z,62.70
2017-11-19T12:49:01.164Z,62.90
2017-11-19T12:51:29.542Z,63.90
2017-11-19T12:53:57.920Z,63.40
2017-11-19T12:56:25.541Z,63.00
2017-11-19T12:58:53.134Z,64.00
2017-11-19T13:01:22.259Z,63.80
2017-11-19T13:03:50.615Z,63.30
2017-11-19T13:06:19.098Z,63.90
2017-11-19T13:08:46.693Z,63.90
2017-11-19T13:11:14.306Z,64.30
2017-11-19T13:13:41.900Z,65.20
2017-11-19T13:16:10.264Z,66.00
2017-11-19T13:18:37.932Z,66.00
2017-11-19T13:21:06.289Z,66.90
2017-11-19T13:23:33.906Z,66.50
2017-11-19T13:26:01.494Z,66.60
2017-11-19T13:28:29.119Z,67.20
2017-11-19T13:30:56.715Z,67.50
2017-11-19T13:33:24.418Z,67.40
2017-11-19T13:35:53.625Z,66.40
2017-11-19T13:38:22.007Z,66.00
2017-11-19T13:40:50.373Z,65.10
2017-11-19T13:43:18.767Z,63.30
2017-11-19T13:45:47.125Z,64.00
2017-11-19T13:48:15.505Z,64.30
2017-11-19T13:50:43.089Z,64.30
2017-11-19T13:53:11.467Z,64.30
2017-11-19T13:55:39.817Z,63.50
2017-11-19T13:58:07.447Z,63.50
2017-11-19T14:00:35.047Z,62.40
2017-11-19T14:03:02.662Z,61.80
2017-11-19T14:05:30.250Z,62.40
2017-11-19T14:07:57.955Z,61.20
2017-11-19T14:10:26.337Z,61.80
2017-11-19T14:12:54.691Z,62.10
2017-11-19T14:15:22.302Z,62.10
2017-11-19T14:17:49.938Z,61.60
2017-11-19T14:20:18.418Z,61.00
2017-11-19T14:22:46.776Z,60.30
2017-11-19T14:25:14.465Z,59.80
2017-11-19T14:27:42.838Z,59.30
2017-11-19T14:30:10.562Z,59.30
2017-11-19T14:32:38.158Z,59.40
2017-11-19T14:35:05.774Z,59.90
2017-11-19T14:37:33.396Z,60.30
2017-11-19T14:40:01.870Z,61.00
2017-11-19T14:42:30.974Z,60.60
2017-11-19T14:44:59.364Z,60.00
2017-11-19T14:47:27.713Z,60.10
2017-11-19T14:49:55.374Z,60.10
2017-11-19T14:52:23.064Z,60.00
2017-11-19T14:54:51.435Z,60.00
2017-11-19T14:57:20.558Z,60.40
2017-11-19T14:59:48.257Z,60.40
2017-11-19T15:02:15.875Z,60.60
2017-11-19T15:04:44.229Z,61.10
2017-11-19T15:07:12.728Z,60.90
2017-11-19T15:09:41.097Z,60.90
2017-11-19T15:12:09.479Z,60.50
2017-11-19T15:14:37.955Z,62.10
2017-11-19T15:17:05.575Z,61.30
2017-11-19T15:19:33.195Z,61.20
2017-11-19T15:22:01.675Z,61.70
2017-11-19T15:24:30.030Z,61.60
2017-11-19T15:26:57.641Z,61.50
2017-11-19T15:29:25.239Z,62.00
2017-11-19T15:31:52.854Z,62.00
2017-11-19T15:34:21.210Z,62.10
2017-11-19T15:36:49.698Z,62.90
2017-11-19T15:39:18.075Z,62.30
2017-11-19T15:41:46.618Z,62.10
2017-11-19T15:44:14.205Z,62.10
2017-11-19T15:46:41.890Z,61.80
2017-11-19T15:49:10.371Z,61.50
2017-11-19T15:51:38.740Z,62.00
2017-11-19T15:54:06.410Z,61.90
2017-11-19T15:56:34.795Z,63.10
2017-11-19T15:59:04.713Z,63.50
2017-11-19T16:01:33.095Z,63.80
2017-11-19T16:04:01.477Z,63.70
2017-11-19T16:06:29.839Z,63.60
2017-11-19T16:08:57.453Z,63.50
2017-11-19T16:11:25.051Z,63.20
2017-11-19T16:13:52.666Z,63.20
2017-11-19T16:16:20.262Z,62.80
2017-11-19T16:18:47.954Z,62.80
2017-11-19T16:21:15.550Z,62.70
2017-11-19T16:23:43.190Z,62.70
2017-11-19T16:26:11.552Z,62.70
2017-11-19T16:28:39.218Z,62.50
2017-11-19T16:31:06.825Z,62.70
2017-11-19T16:33:34.422Z,62.90
2017-11-19T16:36:02.048Z,62.90
2017-11-19T16:38:29.637Z,62.80
2017-11-19T16:40:57.246Z,62.90
2017-11-19T16:43:25.601Z,62.70
2017-11-19T16:45:53.210Z,62.60
2017-11-19T16:48:20.793Z,62.60
2017-11-19T16:50:48.410Z,62.60
2017-11-19T16:53:16.773Z,62.60
2017-11-19T16:55:44.400Z,62.50
2017-11-19T16:58:11.996Z,62.00
2017-11-19T17:00:39.661Z,61.70
2017-11-19T17:03:23.314Z,61.30
2017-11-19T17:05:50.955Z,61.20
2017-11-19T17:08:18.554Z,60.90
2017-11-19T17:10:46.180Z,61.00
2017-11-19T17:13:13.782Z,60.90
2017-11-19T17:15:41.474Z,60.60
2017-11-19T17:18:09.169Z,60.70
2017-11-19T17:20:36.901Z,59.70
2017-11-19T17:23:04.611Z,59.50
2017-11-19T17:25:32.979Z,59.30
2017-11-19T17:28:01.374Z,59.20
2017-11-19T17:30:29.738Z,59.30
2017-11-19T17:32:58.945Z,58.90
2017-11-19T17:35:26.564Z,58.90
2017-11-19T17:37:54.199Z,59.10
2017-11-19T17:40:21.839Z,59.00
2017-11-19T17:42:50.224Z,59.30
2017-11-19T17:45:18.586Z,59.50
2017-11-19T17:47:46.194Z,59.50
2017-11-19T17:50:13.794Z,59.30
2017-11-19T17:52:41.413Z,59.50
2017-11-19T17:55:09.002Z,59.60
2017-11-19T17:57:36.627Z,59.80
2017-11-19T18:00:04.228Z,59.90
2017-11-19T18:02:31.847Z,59.90
2017-11-19T18:04:59.450Z,59.60
2017-11-19T18:07:27.079Z,59.70
2017-11-19T18:09:54.705Z,59.80
2017-11-19T18:12:22.372Z,59.80
2017-11-19T18:14:50.005Z,59.90
2017-11-19T18:17:17.611Z,60.30
2017-11-19T18:19:46.008Z,60.10
2017-11-19T18:22:14.519Z,60.10
2017-11-19T18:24:42.145Z,60.40
2017-11-19T18:27:09.847Z,60.30
2017-11-19T18:29:37.457Z,60.30
2017-11-19T18:32:05.821Z,60.60
2017-11-19T18:34:33.437Z,60.50
2017-11-19T18:37:01.055Z,60.80
2017-11-19T18:39:28.674Z,60.90
2017-11-19T18:41:56.257Z,61.10
2017-11-19T18:44:23.938Z,61.10
2017-11-19T18:46:51.664Z,61.20
2017-11-19T18:49:19.362Z,61.10
2017-11-19T18:51:46.986Z,61.50
2017-11-19T18:54:14.597Z,61.60
2017-11-19T18:56:43.080Z,61.80
2017-11-19T18:59:11.445Z,62.90
2017-11-19T19:01:39.118Z,62.00
2017-11-19T19:04:06.786Z,62.10
2017-11-19T19:06:35.165Z,62.40
2017-11-19T19:09:03.528Z,63.50
2017-11-19T19:11:31.211Z,62.50
2017-11-19T19:13:59.579Z,63.00
2017-11-19T19:16:27.246Z,63.00
2017-11-19T19:18:55.634Z,63.80
2017-11-19T19:21:24.105Z,63.80
2017-11-19T19:23:52.599Z,64.20
2017-11-19T19:26:20.963Z,64.30
2017-11-19T19:28:48.642Z,64.30
2017-11-19T19:31:17.013Z,64.50
2017-11-19T19:33:44.681Z,64.40
2017-11-19T19:36:12.348Z,64.20
2017-11-19T19:38:40.737Z,64.40
2017-11-19T19:41:09.090Z,64.40
2017-11-19T19:43:36.702Z,64.30
2017-11-19T19:46:04.330Z,64.30
2017-11-19T19:48:32.815Z,63.90
2017-11-19T19:51:01.183Z,63.70
2017-11-19T19:53:28.809Z,63.70
2017-11-19T19:55:56.407Z,63.50
2017-11-19T19:58:24.027Z,63.00
2017-11-19T20:00:52.263Z,63.20
2017-11-19T20:03:20.637Z,63.30
2017-11-19T20:05:49.028Z,63.20
2017-11-19T20:08:17.494Z,63.30
2017-11-19T20:10:45.978Z,63.60
2017-11-19T20:13:14.357Z,63.40
2017-11-19T20:15:42.732Z,63.70
2017-11-19T20:18:10.331Z,63.60
2017-11-19T20:20:37.954Z,63.80
2017-11-19T20:23:05.541Z,63.80
2017-11-19T20:25:33.933Z,63.80
2017-11-19T20:28:01.543Z,63.80
2017-11-19T20:30:29.217Z,64.10
2017-11-19T20:32:56.894Z,64.10
2017-11-19T20:35:25.371Z,64.90
2017-11-19T20:37:52.995Z,63.90
2017-11-19T20:40:20.615Z,64.00
2017-11-19T20:42:49.603Z,64.20
2017-11-19T20:45:18.075Z,64.20
2017-11-19T20:47:46.469Z,65.00
2017-11-19T20:50:14.833Z,64.20
2017-11-19T20:52:43.215Z,64.30
2017-11-19T20:55:11.569Z,64.40
2017-11-19T20:57:39.190Z,64.30
2017-11-19T21:00:06.781Z,64.50
2017-11-19T21:02:34.398Z,64.50
2017-11-19T21:05:02.818Z,64.70
2017-11-19T21:07:30.525Z,64.60
2017-11-19T21:09:58.114Z,64.50
2017-11-19T21:12:25.729Z,64.60
2017-11-19T21:14:53.416Z,64.70
2017-11-19T21:17:21.796Z,64.80
2017-11-19T21:19:49.456Z,64.70
2017-11-19T21:22:17.843Z,64.90
2017-11-19T21:24:46.234Z,65.10
2017-11-19T21:27:14.703Z,65.10
2017-11-19T21:29:43.178Z,65.10
2017-11-19T21:32:10.770Z,65.10
2017-11-19T21:34:38.389Z,65.20
2017-11-19T21:37:07.607Z,65.50
2017-11-19T21:39:35.986Z,65.60
2017-11-19T21:42:03.646Z,65.50
2017-11-19T21:44:31.261Z,65.60
2017-11-19T21:46:58.869Z,65.80
2017-11-19T21:49:26.474Z,65.70
2017-11-19T21:51:54.093Z,65.50
2017-11-19T21:54:21.759Z,65.60
2017-11-19T21:56:49.422Z,65.70
2017-11-19T21:59:17.042Z,65.70
2017-11-19T22:01:44.638Z,65.60
2017-11-19T22:04:12.225Z,65.60
2017-11-19T22:06:40.607Z,65.90
2017-11-19T22:09:09.062Z,66.00
2017-11-19T22:11:36.679Z,65.90
2017-11-19T22:14:04.293Z,66.00
2017-11-19T22:16:31.913Z,66.00
2017-11-19T22:18:59.499Z,66.20
2017-11-19T22:21:27.177Z,66.30
2017-11-19T22:23:54.769Z,67.10
2017-11-19T22:26:22.390Z,66.30
2017-11-19T22:28:49.990Z,66.30
2017-11-19T22:31:17.636Z,67.20
2017-11-19T22:33:46.109Z,66.40
2017-11-19T22:36:13.731Z,66.50
2017-11-19T22:38:41.317Z,66.50
2017-11-19T22:41:09.004Z,66.60
2017-11-19T22:43:37.392Z,66.80
2017-11-19T22:46:05.789Z,66.80
2017-11-19T22:48:33.405Z,66.80
2017-11-19T22:51:01.090Z,67.00
2017-11-19T22:53:29.476Z,67.40
2017-11-19T22:55:57.952Z,67.60
2017-11-19T22:58:26.427Z,68.00
2017-11-19T23:00:54.097Z,67.90
2017-11-19T23:03:21.714Z,68.20
2017-11-19T23:05:49.305Z,68.70
2017-11-19T23:08:16.982Z,69.00
2017-11-19T23:10:44.647Z,69.20
2017-11-19T23:13:12.301Z,69.40
2017-11-19T23:15:39.965Z,69.80
2017-11-19T23:18:07.558Z,70.00
2017-11-19T23:20:35.171Z,70.30
2017-11-19T23:23:02.768Z,70.50
2017-11-19T23:25:31.148Z,70.90
2017-11-19T23:27:59.510Z,71.00
2017-11-19T23:30:27.132Z,71.00
2017-11-19T23:32:54.741Z,71.10
2017-11-19T23:35:22.362Z,71.10
2017-11-19T23:37:49.954Z,71.20
2017-11-19T23:40:17.571Z,71.80
2017-11-19T23:42:45.181Z,72.00
2017-11-19T23:45:12.850Z,72.20
2017-11-19T23:47:40.441Z,72.30
2017-11-19T23:50:08.064Z,73.30
2017-11-19T23:52:35.734Z,72.40
2017-11-19T23:55:03.408Z,72.40
2017-11-19T23:57:31.882Z,72.30
